sensor_id;sensor_type;location;lat;lon;timestamp;P1;durP1;ratioP1;P2;durP2;ratioP2
40729;SDS011;26418;50.070;8.436;2022-08-21T00:01:44;6.28;;;3.55;;
40729;SDS011;26418;50.070;8.436;2022-08-21T00:04:10;7.22;;;4.03;;
40729;SDS011;26418;50.070;8.436;2022-08-21T00:06:36;9.13;;;4.53;;
40729;SDS011;26418;50.070;8.436;2022-08-21T00:09:02;10.57;;;4.95;;
40729;SDS011;26418;50.070;8.436;2022-08-21T00:11:30;9.07;;;4.57;;
40729;SDS011;26418;50.070;8.436;2022-08-21T00:13:55;7.30;;;4.78;;
40729;SDS011;26418;50.070;8.436;2022-08-21T00:16:21;9.20;;;4.78;;
40729;SDS011;26418;50.070;8.436;2022-08-21T00:18:47;9.35;;;5.13;;
40729;SDS011;26418;50.070;8.436;2022-08-21T00:21:13;8.63;;;4.47;;
40729;SDS011;26418;50.070;8.436;2022-08-21T00:23:39;10.07;;;4.15;;
40729;SDS011;26418;50.070;8.436;2022-08-21T00:26:05;8.40;;;5.03;;
40729;SDS011;26418;50.070;8.436;2022-08-21T00:28:31;7.65;;;5.18;;
40729;SDS011;26418;50.070;8.436;2022-08-21T00:30:57;11.32;;;4.57;;
40729;SDS011;26418;50.070;8.436;2022-08-21T00:33:22;7.32;;;5.18;;
40729;SDS011;26418;50.070;8.436;2022-08-21T00:35:48;9.40;;;5.60;;
40729;SDS011;26418;50.070;8.436;2022-08-21T00:38:14;8.85;;;5.70;;
40729;SDS011;26418;50.070;8.436;2022-08-21T00:43:08;5.57;;;4.97;;
40729;SDS011;26418;50.070;8.436;2022-08-21T00:45:35;10.45;;;5.80;;
40729;SDS011;26418;50.070;8.436;2022-08-21T00:48:01;7.18;;;4.82;;
40729;SDS011;26418;50.070;8.436;2022-08-21T00:50:28;7.00;;;4.28;;
40729;SDS011;26418;50.070;8.436;2022-08-21T00:52:57;7.32;;;4.82;;
40729;SDS011;26418;50.070;8.436;2022-08-21T00:55:25;4.82;;;4.32;;
40729;SDS011;26418;50.070;8.436;2022-08-21T00:57:52;7.22;;;4.70;;
40729;SDS011;26418;50.070;8.436;2022-08-21T01:00:28;7.30;;;4.50;;
40729;SDS011;26418;50.070;8.436;2022-08-21T01:02:58;6.05;;;4.75;;
40729;SDS011;26418;50.070;8.436;2022-08-21T01:05:25;7.18;;;4.13;;
40729;SDS011;26418;50.070;8.436;2022-08-21T01:07:51;6.00;;;3.90;;
40729;SDS011;26418;50.070;8.436;2022-08-21T01:10:18;9.18;;;4.95;;
40729;SDS011;26418;50.070;8.436;2022-08-21T01:12:44;5.00;;;4.35;;
40729;SDS011;26418;50.070;8.436;2022-08-21T01:15:11;6.68;;;5.43;;
40729;SDS011;26418;50.070;8.436;2022-08-21T01:17:40;7.57;;;4.70;;
40729;SDS011;26418;50.070;8.436;2022-08-21T01:20:06;9.10;;;5.90;;
40729;SDS011;26418;50.070;8.436;2022-08-21T01:22:33;10.18;;;6.28;;
40729;SDS011;26418;50.070;8.436;2022-08-21T01:24:58;10.30;;;6.05;;
40729;SDS011;26418;50.070;8.436;2022-08-21T01:27:24;15.05;;;7.00;;
40729;SDS011;26418;50.070;8.436;2022-08-21T01:32:41;10.68;;;6.00;;
40729;SDS011;26418;50.070;8.436;2022-08-21T01:35:07;10.60;;;6.22;;
40729;SDS011;26418;50.070;8.436;2022-08-21T01:37:34;12.25;;;6.97;;
40729;SDS011;26418;50.070;8.436;2022-08-21T01:39:59;8.57;;;6.70;;
40729;SDS011;26418;50.070;8.436;2022-08-21T01:42:25;12.23;;;6.18;;
40729;SDS011;26418;50.070;8.436;2022-08-21T01:44:50;9.77;;;6.65;;
40729;SDS011;26418;50.070;8.436;2022-08-21T01:47:16;10.75;;;6.22;;
40729;SDS011;26418;50.070;8.436;2022-08-21T01:49:42;10.52;;;6.55;;
40729;SDS011;26418;50.070;8.436;2022-08-21T01:52:08;8.57;;;6.90;;
40729;SDS011;26418;50.070;8.436;2022-08-21T01:54:34;10.38;;;6.45;;
40729;SDS011;26418;50.070;8.436;2022-08-21T01:57:01;11.45;;;6.57;;
40729;SDS011;26418;50.070;8.436;2022-08-21T01:59:27;10.55;;;6.47;;
40729;SDS011;26418;50.070;8.436;2022-08-21T02:01:53;8.73;;;6.28;;
40729;SDS011;26418;50.070;8.436;2022-08-21T02:04:21;10.20;;;6.95;;
40729;SDS011;26418;50.070;8.436;2022-08-21T02:06:47;8.93;;;6.25;;
40729;SDS011;26418;50.070;8.436;2022-08-21T02:09:13;11.40;;;6.97;;
40729;SDS011;26418;50.070;8.436;2022-08-21T02:11:39;11.82;;;7.32;;
40729;SDS011;26418;50.070;8.436;2022-08-21T02:14:09;8.55;;;7.15;;
40729;SDS011;26418;50.070;8.436;2022-08-21T02:16:39;16.33;;;7.20;;
40729;SDS011;26418;50.070;8.436;2022-08-21T02:19:09;9.35;;;7.38;;
40729;SDS011;26418;50.070;8.436;2022-08-21T02:21:35;12.43;;;7.18;;
40729;SDS011;26418;50.070;8.436;2022-08-21T02:24:01;13.95;;;8.07;;
40729;SDS011;26418;50.070;8.436;2022-08-21T02:26:27;12.60;;;7.10;;
40729;SDS011;26418;50.070;8.436;2022-08-21T02:28:53;9.73;;;7.13;;
40729;SDS011;26418;50.070;8.436;2022-08-21T02:31:18;11.77;;;6.55;;
40729;SDS011;26418;50.070;8.436;2022-08-21T02:33:44;12.93;;;7.18;;
40729;SDS011;26418;50.070;8.436;2022-08-21T02:36:10;9.60;;;6.47;;
40729;SDS011;26418;50.070;8.436;2022-08-21T02:38:37;10.52;;;6.63;;
40729;SDS011;26418;50.070;8.436;2022-08-21T02:41:06;9.55;;;7.00;;
40729;SDS011;26418;50.070;8.436;2022-08-21T02:43:33;8.88;;;6.20;;
40729;SDS011;26418;50.070;8.436;2022-08-21T02:46:00;8.57;;;6.63;;
40729;SDS011;26418;50.070;8.436;2022-08-21T02:48:28;9.68;;;6.70;;
40729;SDS011;26418;50.070;8.436;2022-08-21T02:51:03;10.98;;;6.15;;
40729;SDS011;26418;50.070;8.436;2022-08-21T02:53:34;12.07;;;7.00;;
40729;SDS011;26418;50.070;8.436;2022-08-21T02:56:01;8.40;;;6.13;;
40729;SDS011;26418;50.070;8.436;2022-08-21T02:58:35;9.52;;;6.43;;
40729;SDS011;26418;50.070;8.436;2022-08-21T03:01:03;8.95;;;6.97;;
40729;SDS011;26418;50.070;8.436;2022-08-21T03:03:29;10.05;;;6.97;;
40729;SDS011;26418;50.070;8.436;2022-08-21T03:05:55;11.18;;;7.28;;
40729;SDS011;26418;50.070;8.436;2022-08-21T03:08:22;13.10;;;7.32;;
40729;SDS011;26418;50.070;8.436;2022-08-21T03:10:50;11.90;;;7.00;;
40729;SDS011;26418;50.070;8.436;2022-08-21T03:13:17;12.23;;;7.70;;
40729;SDS011;26418;50.070;8.436;2022-08-21T03:15:45;10.02;;;7.13;;
40729;SDS011;26418;50.070;8.436;2022-08-21T03:18:11;8.52;;;6.35;;
40729;SDS011;26418;50.070;8.436;2022-08-21T03:20:38;7.78;;;5.78;;
40729;SDS011;26418;50.070;8.436;2022-08-21T03:23:04;13.20;;;6.43;;
40729;SDS011;26418;50.070;8.436;2022-08-21T03:25:31;7.65;;;5.80;;
40729;SDS011;26418;50.070;8.436;2022-08-21T03:27:58;12.32;;;7.20;;
40729;SDS011;26418;50.070;8.436;2022-08-21T03:30:24;11.68;;;6.72;;
40729;SDS011;26418;50.070;8.436;2022-08-21T03:32:50;7.80;;;6.45;;
40729;SDS011;26418;50.070;8.436;2022-08-21T03:35:16;8.93;;;5.85;;
40729;SDS011;26418;50.070;8.436;2022-08-21T03:37:43;11.90;;;6.45;;
40729;SDS011;26418;50.070;8.436;2022-08-21T03:40:09;9.98;;;5.88;;
40729;SDS011;26418;50.070;8.436;2022-08-21T03:42:36;8.45;;;5.82;;
40729;SDS011;26418;50.070;8.436;2022-08-21T03:45:02;9.93;;;6.07;;
40729;SDS011;26418;50.070;8.436;2022-08-21T03:47:28;10.70;;;6.25;;
40729;SDS011;26418;50.070;8.436;2022-08-21T03:49:54;6.70;;;5.22;;
40729;SDS011;26418;50.070;8.436;2022-08-21T03:52:19;8.55;;;5.70;;
40729;SDS011;26418;50.070;8.436;2022-08-21T03:54:45;6.97;;;5.97;;
40729;SDS011;26418;50.070;8.436;2022-08-21T03:57:10;10.95;;;6.32;;
40729;SDS011;26418;50.070;8.436;2022-08-21T03:59:36;14.15;;;6.53;;
40729;SDS011;26418;50.070;8.436;2022-08-21T04:02:03;10.10;;;6.13;;
40729;SDS011;26418;50.070;8.436;2022-08-21T04:04:29;10.20;;;6.50;;
40729;SDS011;26418;50.070;8.436;2022-08-21T04:06:56;13.45;;;5.82;;
40729;SDS011;26418;50.070;8.436;2022-08-21T04:09:22;8.43;;;5.85;;
40729;SDS011;26418;50.070;8.436;2022-08-21T04:11:49;7.07;;;5.45;;
40729;SDS011;26418;50.070;8.436;2022-08-21T04:14:15;9.52;;;6.05;;
40729;SDS011;26418;50.070;8.436;2022-08-21T04:16:41;7.38;;;5.32;;
40729;SDS011;26418;50.070;8.436;2022-08-21T04:19:08;7.75;;;5.65;;
40729;SDS011;26418;50.070;8.436;2022-08-21T04:21:35;7.70;;;5.40;;
40729;SDS011;26418;50.070;8.436;2022-08-21T04:24:03;10.18;;;5.75;;
40729;SDS011;26418;50.070;8.436;2022-08-21T04:26:29;9.45;;;6.78;;
40729;SDS011;26418;50.070;8.436;2022-08-21T04:28:56;12.00;;;6.85;;
40729;SDS011;26418;50.070;8.436;2022-08-21T04:31:22;8.80;;;6.28;;
40729;SDS011;26418;50.070;8.436;2022-08-21T04:33:49;12.25;;;7.80;;
40729;SDS011;26418;50.070;8.436;2022-08-21T04:36:15;12.88;;;7.05;;
40729;SDS011;26418;50.070;8.436;2022-08-21T04:38:40;8.05;;;6.45;;
40729;SDS011;26418;50.070;8.436;2022-08-21T04:41:06;11.45;;;6.07;;
40729;SDS011;26418;50.070;8.436;2022-08-21T04:43:32;8.82;;;6.03;;
40729;SDS011;26418;50.070;8.436;2022-08-21T04:45:57;6.60;;;5.43;;
40729;SDS011;26418;50.070;8.436;2022-08-21T04:48:25;13.52;;;5.97;;
40729;SDS011;26418;50.070;8.436;2022-08-21T04:50:56;6.50;;;4.70;;
40729;SDS011;26418;50.070;8.436;2022-08-21T04:53:29;7.30;;;5.43;;
40729;SDS011;26418;50.070;8.436;2022-08-21T04:56:26;9.05;;;5.95;;
40729;SDS011;26418;50.070;8.436;2022-08-21T04:59:11;7.80;;;5.38;;
40729;SDS011;26418;50.070;8.436;2022-08-21T05:01:41;6.53;;;5.10;;
40729;SDS011;26418;50.070;8.436;2022-08-21T05:04:08;10.85;;;4.97;;
40729;SDS011;26418;50.070;8.436;2022-08-21T05:06:37;9.45;;;5.18;;
40729;SDS011;26418;50.070;8.436;2022-08-21T05:09:04;7.00;;;5.60;;
40729;SDS011;26418;50.070;8.436;2022-08-21T05:11:30;7.07;;;5.32;;
40729;SDS011;26418;50.070;8.436;2022-08-21T05:13:56;6.93;;;5.20;;
40729;SDS011;26418;50.070;8.436;2022-08-21T05:16:22;8.38;;;5.00;;
40729;SDS011;26418;50.070;8.436;2022-08-21T05:18:48;6.30;;;4.40;;
40729;SDS011;26418;50.070;8.436;2022-08-21T05:21:13;6.85;;;4.18;;
40729;SDS011;26418;50.070;8.436;2022-08-21T05:23:38;10.85;;;6.50;;
40729;SDS011;26418;50.070;8.436;2022-08-21T05:26:04;12.52;;;7.30;;
40729;SDS011;26418;50.070;8.436;2022-08-21T05:30:58;11.85;;;6.93;;
40729;SDS011;26418;50.070;8.436;2022-08-21T05:33:24;10.88;;;6.95;;
40729;SDS011;26418;50.070;8.436;2022-08-21T05:35:50;8.98;;;5.90;;
40729;SDS011;26418;50.070;8.436;2022-08-21T05:38:17;10.07;;;5.55;;
40729;SDS011;26418;50.070;8.436;2022-08-21T05:40:44;7.07;;;5.20;;
40729;SDS011;26418;50.070;8.436;2022-08-21T05:43:10;10.52;;;5.75;;
40729;SDS011;26418;50.070;8.436;2022-08-21T05:45:35;8.02;;;5.75;;
40729;SDS011;26418;50.070;8.436;2022-08-21T05:48:18;9.48;;;5.50;;
40729;SDS011;26418;50.070;8.436;2022-08-21T05:50:45;7.55;;;5.05;;
40729;SDS011;26418;50.070;8.436;2022-08-21T05:53:12;8.02;;;5.68;;
40729;SDS011;26418;50.070;8.436;2022-08-21T05:55:38;7.05;;;5.43;;
40729;SDS011;26418;50.070;8.436;2022-08-21T05:58:05;8.95;;;5.40;;
40729;SDS011;26418;50.070;8.436;2022-08-21T06:00:31;12.05;;;5.65;;
40729;SDS011;26418;50.070;8.436;2022-08-21T06:02:57;7.47;;;5.47;;
40729;SDS011;26418;50.070;8.436;2022-08-21T06:05:23;7.88;;;5.00;;
40729;SDS011;26418;50.070;8.436;2022-08-21T06:07:49;7.55;;;4.53;;
40729;SDS011;26418;50.070;8.436;2022-08-21T06:10:14;8.63;;;5.00;;
40729;SDS011;26418;50.070;8.436;2022-08-21T06:12:40;9.43;;;5.25;;
40729;SDS011;26418;50.070;8.436;2022-08-21T06:15:05;8.05;;;5.43;;
40729;SDS011;26418;50.070;8.436;2022-08-21T06:17:31;8.75;;;5.20;;
40729;SDS011;26418;50.070;8.436;2022-08-21T06:19:57;7.03;;;5.15;;
40729;SDS011;26418;50.070;8.436;2022-08-21T06:22:22;10.50;;;5.43;;
40729;SDS011;26418;50.070;8.436;2022-08-21T06:24:48;7.30;;;4.72;;
40729;SDS011;26418;50.070;8.436;2022-08-21T06:27:13;7.80;;;4.38;;
40729;SDS011;26418;50.070;8.436;2022-08-21T06:29:40;9.10;;;4.75;;
40729;SDS011;26418;50.070;8.436;2022-08-21T06:32:06;6.95;;;4.25;;
40729;SDS011;26418;50.070;8.436;2022-08-21T06:34:35;8.52;;;4.60;;
40729;SDS011;26418;50.070;8.436;2022-08-21T06:37:03;7.85;;;4.50;;
40729;SDS011;26418;50.070;8.436;2022-08-21T06:39:29;9.80;;;5.07;;
40729;SDS011;26418;50.070;8.436;2022-08-21T06:41:54;7.35;;;4.93;;
40729;SDS011;26418;50.070;8.436;2022-08-21T06:44:20;8.93;;;5.10;;
40729;SDS011;26418;50.070;8.436;2022-08-21T06:46:45;12.43;;;4.80;;
40729;SDS011;26418;50.070;8.436;2022-08-21T06:49:11;9.02;;;5.10;;
40729;SDS011;26418;50.070;8.436;2022-08-21T06:51:37;10.02;;;5.05;;
40729;SDS011;26418;50.070;8.436;2022-08-21T06:54:03;5.40;;;4.35;;
40729;SDS011;26418;50.070;8.436;2022-08-21T06:56:29;10.88;;;4.30;;
40729;SDS011;26418;50.070;8.436;2022-08-21T06:58:54;10.23;;;5.50;;
40729;SDS011;26418;50.070;8.436;2022-08-21T07:01:21;8.73;;;5.90;;
40729;SDS011;26418;50.070;8.436;2022-08-21T07:03:49;9.55;;;6.00;;
40729;SDS011;26418;50.070;8.436;2022-08-21T07:06:15;13.38;;;6.55;;
40729;SDS011;26418;50.070;8.436;2022-08-21T07:08:40;11.68;;;7.43;;
40729;SDS011;26418;50.070;8.436;2022-08-21T07:11:07;14.88;;;8.68;;
40729;SDS011;26418;50.070;8.436;2022-08-21T07:13:37;8.57;;;6.97;;
40729;SDS011;26418;50.070;8.436;2022-08-21T07:16:02;11.32;;;8.32;;
40729;SDS011;26418;50.070;8.436;2022-08-21T07:18:28;14.13;;;8.10;;
40729;SDS011;26418;50.070;8.436;2022-08-21T07:20:54;11.43;;;7.97;;
40729;SDS011;26418;50.070;8.436;2022-08-21T07:23:28;11.35;;;7.55;;
40729;SDS011;26418;50.070;8.436;2022-08-21T07:25:55;10.68;;;7.45;;
40729;SDS011;26418;50.070;8.436;2022-08-21T07:28:20;12.35;;;8.57;;
40729;SDS011;26418;50.070;8.436;2022-08-21T07:30:49;11.55;;;7.43;;
40729;SDS011;26418;50.070;8.436;2022-08-21T07:33:16;10.73;;;6.53;;
40729;SDS011;26418;50.070;8.436;2022-08-21T07:35:42;11.65;;;6.85;;
40729;SDS011;26418;50.070;8.436;2022-08-21T07:38:07;9.82;;;6.45;;
40729;SDS011;26418;50.070;8.436;2022-08-21T07:40:33;14.18;;;7.35;;
40729;SDS011;26418;50.070;8.436;2022-08-21T07:42:58;9.57;;;7.25;;
40729;SDS011;26418;50.070;8.436;2022-08-21T07:45:24;10.68;;;6.43;;
40729;SDS011;26418;50.070;8.436;2022-08-21T07:47:50;8.90;;;6.78;;
40729;SDS011;26418;50.070;8.436;2022-08-21T07:50:15;11.18;;;7.15;;
40729;SDS011;26418;50.070;8.436;2022-08-21T07:52:41;12.50;;;6.68;;
40729;SDS011;26418;50.070;8.436;2022-08-21T07:55:12;13.00;;;7.18;;
40729;SDS011;26418;50.070;8.436;2022-08-21T07:57:39;10.02;;;6.28;;
40729;SDS011;26418;50.070;8.436;2022-08-21T08:00:05;12.95;;;5.95;;
40729;SDS011;26418;50.070;8.436;2022-08-21T08:02:34;9.60;;;5.50;;
40729;SDS011;26418;50.070;8.436;2022-08-21T08:05:03;11.20;;;6.55;;
40729;SDS011;26418;50.070;8.436;2022-08-21T08:07:31;6.57;;;5.40;;
40729;SDS011;26418;50.070;8.436;2022-08-21T08:09:57;11.25;;;5.65;;
40729;SDS011;26418;50.070;8.436;2022-08-21T08:12:23;8.68;;;5.28;;
40729;SDS011;26418;50.070;8.436;2022-08-21T08:14:58;11.98;;;6.70;;
40729;SDS011;26418;50.070;8.436;2022-08-21T08:17:25;11.87;;;6.57;;
40729;SDS011;26418;50.070;8.436;2022-08-21T08:19:51;12.15;;;7.30;;
40729;SDS011;26418;50.070;8.436;2022-08-21T08:22:19;11.88;;;6.03;;
40729;SDS011;26418;50.070;8.436;2022-08-21T08:24:50;7.78;;;5.68;;
40729;SDS011;26418;50.070;8.436;2022-08-21T08:27:17;13.05;;;6.85;;
40729;SDS011;26418;50.070;8.436;2022-08-21T08:29:43;7.50;;;5.35;;
40729;SDS011;26418;50.070;8.436;2022-08-21T08:32:09;12.13;;;7.10;;
40729;SDS011;26418;50.070;8.436;2022-08-21T08:34:35;12.85;;;7.22;;
40729;SDS011;26418;50.070;8.436;2022-08-21T08:37:02;12.13;;;6.43;;
40729;SDS011;26418;50.070;8.436;2022-08-21T08:39:29;14.63;;;7.57;;
40729;SDS011;26418;50.070;8.436;2022-08-21T08:42:14;15.13;;;8.18;;
40729;SDS011;26418;50.070;8.436;2022-08-21T08:44:44;9.75;;;6.43;;
40729;SDS011;26418;50.070;8.436;2022-08-21T08:47:11;6.45;;;5.68;;
40729;SDS011;26418;50.070;8.436;2022-08-21T08:49:45;9.95;;;6.43;;
40729;SDS011;26418;50.070;8.436;2022-08-21T08:52:21;8.70;;;5.55;;
40729;SDS011;26418;50.070;8.436;2022-08-21T08:55:13;10.50;;;6.10;;
40729;SDS011;26418;50.070;8.436;2022-08-21T08:57:44;14.90;;;6.47;;
40729;SDS011;26418;50.070;8.436;2022-08-21T09:00:12;6.97;;;5.03;;
40729;SDS011;26418;50.070;8.436;2022-08-21T09:02:39;9.52;;;5.32;;
40729;SDS011;26418;50.070;8.436;2022-08-21T09:05:06;6.60;;;4.40;;
40729;SDS011;26418;50.070;8.436;2022-08-21T09:10:31;14.32;;;5.30;;
40729;SDS011;26418;50.070;8.436;2022-08-21T09:21:41;7.95;;;4.65;;
40729;SDS011;26418;50.070;8.436;2022-08-21T09:27:11;7.57;;;5.50;;
40729;SDS011;26418;50.070;8.436;2022-08-21T09:29:42;13.95;;;5.55;;
40729;SDS011;26418;50.070;8.436;2022-08-21T09:32:14;8.52;;;6.50;;
40729;SDS011;26418;50.070;8.436;2022-08-21T09:34:54;8.00;;;4.25;;
40729;SDS011;26418;50.070;8.436;2022-08-21T09:37:53;12.57;;;6.03;;
40729;SDS011;26418;50.070;8.436;2022-08-21T09:43:03;11.48;;;5.55;;
40729;SDS011;26418;50.070;8.436;2022-08-21T09:45:32;10.48;;;5.30;;
40729;SDS011;26418;50.070;8.436;2022-08-21T09:51:04;9.95;;;5.30;;
40729;SDS011;26418;50.070;8.436;2022-08-21T09:53:37;9.73;;;5.20;;
40729;SDS011;26418;50.070;8.436;2022-08-21T09:56:16;5.75;;;3.92;;
40729;SDS011;26418;50.070;8.436;2022-08-21T09:59:16;8.40;;;5.00;;
40729;SDS011;26418;50.070;8.436;2022-08-21T10:01:50;8.77;;;4.55;;
40729;SDS011;26418;50.070;8.436;2022-08-21T10:04:22;9.35;;;3.60;;
40729;SDS011;26418;50.070;8.436;2022-08-21T10:07:09;8.82;;;4.63;;
40729;SDS011;26418;50.070;8.436;2022-08-21T10:09:36;9.90;;;4.50;;
40729;SDS011;26418;50.070;8.436;2022-08-21T10:20:28;9.27;;;4.40;;
40729;SDS011;26418;50.070;8.436;2022-08-21T10:23:44;8.38;;;4.22;;
40729;SDS011;26418;50.070;8.436;2022-08-21T10:36:44;10.77;;;4.40;;
40729;SDS011;26418;50.070;8.436;2022-08-21T10:55:14;9.57;;;4.15;;
40729;SDS011;26418;50.070;8.436;2022-08-21T10:57:54;7.50;;;3.90;;
40729;SDS011;26418;50.070;8.436;2022-08-21T11:00:49;9.45;;;3.80;;
40729;SDS011;26418;50.070;8.436;2022-08-21T11:03:29;9.55;;;3.63;;
40729;SDS011;26418;50.070;8.436;2022-08-21T11:06:16;7.72;;;3.75;;
40729;SDS011;26418;50.070;8.436;2022-08-21T11:08:57;8.82;;;3.30;;
40729;SDS011;26418;50.070;8.436;2022-08-21T11:11:39;5.95;;;3.85;;
40729;SDS011;26418;50.070;8.436;2022-08-21T11:17:08;7.40;;;3.30;;
40729;SDS011;26418;50.070;8.436;2022-08-21T11:25:21;8.85;;;3.72;;
40729;SDS011;26418;50.070;8.436;2022-08-21T11:27:59;8.75;;;4.10;;
40729;SDS011;26418;50.070;8.436;2022-08-21T11:30:44;6.55;;;3.30;;
40729;SDS011;26418;50.070;8.436;2022-08-21T11:39:20;4.60;;;3.25;;
40729;SDS011;26418;50.070;8.436;2022-08-21T11:41:56;5.25;;;3.05;;
40729;SDS011;26418;50.070;8.436;2022-08-21T11:44:45;5.65;;;2.83;;
40729;SDS011;26418;50.070;8.436;2022-08-21T11:50:19;7.82;;;2.97;;
40729;SDS011;26418;50.070;8.436;2022-08-21T11:52:57;8.20;;;3.33;;
40729;SDS011;26418;50.070;8.436;2022-08-21T11:56:00;4.88;;;3.05;;
40729;SDS011;26418;50.070;8.436;2022-08-21T11:58:50;7.13;;;3.40;;
40729;SDS011;26418;50.070;8.436;2022-08-21T12:01:28;4.38;;;2.95;;
40729;SDS011;26418;50.070;8.436;2022-08-21T12:04:00;8.52;;;3.13;;
40729;SDS011;26418;50.070;8.436;2022-08-21T12:06:34;7.90;;;3.42;;
40729;SDS011;26418;50.070;8.436;2022-08-21T12:14:51;6.75;;;3.28;;
40729;SDS011;26418;50.070;8.436;2022-08-21T12:17:35;10.50;;;3.77;;
40729;SDS011;26418;50.070;8.436;2022-08-21T12:22:52;5.32;;;2.90;;
40729;SDS011;26418;50.070;8.436;2022-08-21T12:25:19;5.80;;;3.28;;
40729;SDS011;26418;50.070;8.436;2022-08-21T12:30:20;10.45;;;3.72;;
40729;SDS011;26418;50.070;8.436;2022-08-21T12:32:57;5.70;;;3.60;;
40729;SDS011;26418;50.070;8.436;2022-08-21T12:35:25;4.90;;;2.63;;
40729;SDS011;26418;50.070;8.436;2022-08-21T12:37:59;9.00;;;3.40;;
40729;SDS011;26418;50.070;8.436;2022-08-21T12:40:41;7.47;;;3.38;;
40729;SDS011;26418;50.070;8.436;2022-08-21T12:45:58;13.60;;;3.70;;
40729;SDS011;26418;50.070;8.436;2022-08-21T12:48:38;5.63;;;3.00;;
40729;SDS011;26418;50.070;8.436;2022-08-21T12:51:28;4.90;;;2.75;;
40729;SDS011;26418;50.070;8.436;2022-08-21T12:54:01;7.25;;;3.20;;
40729;SDS011;26418;50.070;8.436;2022-08-21T12:56:29;4.72;;;2.55;;
40729;SDS011;26418;50.070;8.436;2022-08-21T12:58:59;3.90;;;2.90;;
40729;SDS011;26418;50.070;8.436;2022-08-21T13:01:31;6.30;;;3.30;;
40729;SDS011;26418;50.070;8.436;2022-08-21T13:04:01;5.07;;;3.05;;
40729;SDS011;26418;50.070;8.436;2022-08-21T13:06:32;6.90;;;3.20;;
40729;SDS011;26418;50.070;8.436;2022-08-21T13:09:07;6.45;;;3.03;;
40729;SDS011;26418;50.070;8.436;2022-08-21T13:11:39;7.13;;;3.30;;
40729;SDS011;26418;50.070;8.436;2022-08-21T13:14:10;10.10;;;3.65;;
40729;SDS011;26418;50.070;8.436;2022-08-21T13:16:48;7.32;;;3.08;;
40729;SDS011;26418;50.070;8.436;2022-08-21T13:19:19;8.85;;;3.53;;
40729;SDS011;26418;50.070;8.436;2022-08-21T13:21:45;9.23;;;3.17;;
40729;SDS011;26418;50.070;8.436;2022-08-21T13:24:25;6.68;;;3.22;;
40729;SDS011;26418;50.070;8.436;2022-08-21T13:26:54;5.20;;;3.08;;
40729;SDS011;26418;50.070;8.436;2022-08-21T13:29:23;7.97;;;2.97;;
40729;SDS011;26418;50.070;8.436;2022-08-21T13:34:20;4.75;;;2.38;;
40729;SDS011;26418;50.070;8.436;2022-08-21T13:36:49;8.70;;;2.70;;
40729;SDS011;26418;50.070;8.436;2022-08-21T13:41:46;7.07;;;3.50;;
40729;SDS011;26418;50.070;8.436;2022-08-21T13:44:20;4.35;;;2.40;;
40729;SDS011;26418;50.070;8.436;2022-08-21T13:46:51;8.32;;;2.92;;
40729;SDS011;26418;50.070;8.436;2022-08-21T13:49:19;5.57;;;2.92;;
40729;SDS011;26418;50.070;8.436;2022-08-21T13:51:48;6.32;;;2.78;;
40729;SDS011;26418;50.070;8.436;2022-08-21T13:54:36;7.03;;;2.72;;
40729;SDS011;26418;50.070;8.436;2022-08-21T13:57:14;9.98;;;2.92;;
40729;SDS011;26418;50.070;8.436;2022-08-21T13:59:41;4.82;;;2.72;;
40729;SDS011;26418;50.070;8.436;2022-08-21T14:02:15;6.60;;;2.75;;
40729;SDS011;26418;50.070;8.436;2022-08-21T14:04:47;4.97;;;2.60;;
40729;SDS011;26418;50.070;8.436;2022-08-21T14:07:18;8.52;;;2.47;;
40729;SDS011;26418;50.070;8.436;2022-08-21T14:10:12;5.60;;;2.55;;
40729;SDS011;26418;50.070;8.436;2022-08-21T14:12:48;4.30;;;2.30;;
40729;SDS011;26418;50.070;8.436;2022-08-21T14:15:24;6.28;;;2.22;;
40729;SDS011;26418;50.070;8.436;2022-08-21T14:17:53;4.65;;;2.58;;
40729;SDS011;26418;50.070;8.436;2022-08-21T14:20:30;6.03;;;2.50;;
40729;SDS011;26418;50.070;8.436;2022-08-21T14:22:58;8.52;;;2.40;;
40729;SDS011;26418;50.070;8.436;2022-08-21T14:27:54;6.90;;;2.22;;
40729;SDS011;26418;50.070;8.436;2022-08-21T14:30:28;7.18;;;2.97;;
40729;SDS011;26418;50.070;8.436;2022-08-21T14:32:56;5.43;;;2.90;;
40729;SDS011;26418;50.070;8.436;2022-08-21T14:35:22;3.85;;;2.47;;
40729;SDS011;26418;50.070;8.436;2022-08-21T14:37:48;7.72;;;2.60;;
40729;SDS011;26418;50.070;8.436;2022-08-21T14:40:17;4.40;;;2.22;;
40729;SDS011;26418;50.070;8.436;2022-08-21T14:42:44;5.82;;;2.42;;
40729;SDS011;26418;50.070;8.436;2022-08-21T14:45:14;3.03;;;2.20;;
40729;SDS011;26418;50.070;8.436;2022-08-21T14:47:53;7.88;;;2.70;;
40729;SDS011;26418;50.070;8.436;2022-08-21T14:50:19;5.22;;;2.70;;
40729;SDS011;26418;50.070;8.436;2022-08-21T14:52:45;7.03;;;2.60;;
40729;SDS011;26418;50.070;8.436;2022-08-21T14:55:11;4.93;;;2.65;;
40729;SDS011;26418;50.070;8.436;2022-08-21T14:57:46;9.48;;;2.53;;
40729;SDS011;26418;50.070;8.436;2022-08-21T15:00:15;3.13;;;1.80;;
40729;SDS011;26418;50.070;8.436;2022-08-21T15:02:43;2.80;;;1.80;;
40729;SDS011;26418;50.070;8.436;2022-08-21T15:05:09;5.28;;;2.60;;
40729;SDS011;26418;50.070;8.436;2022-08-21T15:07:34;5.03;;;2.20;;
40729;SDS011;26418;50.070;8.436;2022-08-21T15:10:00;3.72;;;2.28;;
40729;SDS011;26418;50.070;8.436;2022-08-21T15:12:25;3.30;;;2.33;;
40729;SDS011;26418;50.070;8.436;2022-08-21T15:14:51;4.45;;;2.03;;
40729;SDS011;26418;50.070;8.436;2022-08-21T15:17:17;3.88;;;1.95;;
40729;SDS011;26418;50.070;8.436;2022-08-21T15:19:43;5.28;;;2.47;;
40729;SDS011;26418;50.070;8.436;2022-08-21T15:22:09;4.68;;;2.40;;
40729;SDS011;26418;50.070;8.436;2022-08-21T15:24:34;4.53;;;2.17;;
40729;SDS011;26418;50.070;8.436;2022-08-21T15:27:01;3.78;;;2.60;;
40729;SDS011;26418;50.070;8.436;2022-08-21T15:29:29;3.65;;;2.22;;
40729;SDS011;26418;50.070;8.436;2022-08-21T15:31:56;5.85;;;2.17;;
40729;SDS011;26418;50.070;8.436;2022-08-21T15:34:24;3.28;;;2.05;;
40729;SDS011;26418;50.070;8.436;2022-08-21T15:36:52;3.75;;;2.33;;
40729;SDS011;26418;50.070;8.436;2022-08-21T15:39:18;6.97;;;2.20;;
40729;SDS011;26418;50.070;8.436;2022-08-21T15:41:43;4.68;;;2.42;;
40729;SDS011;26418;50.070;8.436;2022-08-21T15:44:10;6.53;;;2.20;;
40729;SDS011;26418;50.070;8.436;2022-08-21T15:46:37;4.35;;;2.88;;
40729;SDS011;26418;50.070;8.436;2022-08-21T15:49:04;7.05;;;2.60;;
40729;SDS011;26418;50.070;8.436;2022-08-21T15:51:29;3.65;;;2.13;;
40729;SDS011;26418;50.070;8.436;2022-08-21T15:53:55;3.78;;;2.70;;
40729;SDS011;26418;50.070;8.436;2022-08-21T15:56:22;5.55;;;2.35;;
40729;SDS011;26418;50.070;8.436;2022-08-21T15:58:51;3.63;;;2.17;;
40729;SDS011;26418;50.070;8.436;2022-08-21T16:01:22;2.97;;;2.08;;
40729;SDS011;26418;50.070;8.436;2022-08-21T16:03:48;3.63;;;2.15;;
40729;SDS011;26418;50.070;8.436;2022-08-21T16:06:17;5.53;;;2.67;;
40729;SDS011;26418;50.070;8.436;2022-08-21T16:08:43;3.05;;;2.13;;
40729;SDS011;26418;50.070;8.436;2022-08-21T16:11:09;8.43;;;2.60;;
40729;SDS011;26418;50.070;8.436;2022-08-21T16:13:37;4.07;;;2.25;;
40729;SDS011;26418;50.070;8.436;2022-08-21T16:16:07;7.05;;;2.35;;
40729;SDS011;26418;50.070;8.436;2022-08-21T16:18:34;3.25;;;1.52;;
40729;SDS011;26418;50.070;8.436;2022-08-21T16:21:00;4.65;;;1.95;;
40729;SDS011;26418;50.070;8.436;2022-08-21T16:23:25;3.47;;;1.42;;
40729;SDS011;26418;50.070;8.436;2022-08-21T16:25:51;2.28;;;1.23;;
40729;SDS011;26418;50.070;8.436;2022-08-21T16:28:17;4.10;;;1.90;;
40729;SDS011;26418;50.070;8.436;2022-08-21T16:30:46;4.38;;;2.08;;
40729;SDS011;26418;50.070;8.436;2022-08-21T16:33:29;3.30;;;1.98;;
40729;SDS011;26418;50.070;8.436;2022-08-21T16:35:58;3.58;;;1.63;;
40729;SDS011;26418;50.070;8.436;2022-08-21T16:38:25;2.28;;;1.30;;